sensor_id;sensor_type;location;lat;lon;timestamp;pressure;altitude;pressure_sealevel;temperature;humidity
71774;BME280;59607;52.130;5.430;2023-07-13T00:00:02;101402.38;;;17.71;84.67
71774;BME280;59607;52.130;5.430;2023-07-13T00:02:31;101405.63;;;17.67;85.13
71774;BME280;59607;52.130;5.430;2023-07-13T00:04:59;101405.44;;;17.61;85.52
71774;BME280;59607;52.130;5.430;2023-07-13T00:07:26;101408.44;;;17.58;85.91
71774;BME280;59607;52.130;5.430;2023-07-13T00:09:56;101404.34;;;17.56;86.01
71774;BME280;59607;52.130;5.430;2023-07-13T00:12:33;101412.72;;;17.52;86.47
71774;BME280;59607;52.130;5.430;2023-07-13T00:15:17;101404.13;;;17.50;86.83
71774;BME280;59607;52.130;5.430;2023-07-13T00:17:54;101407.38;;;17.46;87.23
71774;BME280;59607;52.130;5.430;2023-07-13T00:20:23;101410.41;;;17.43;87.81
71774;BME280;59607;52.130;5.430;2023-07-13T00:22:54;101412.81;;;17.37;87.90
71774;BME280;59607;52.130;5.430;2023-07-13T00:25:22;101413.19;;;17.34;87.81
71774;BME280;59607;52.130;5.430;2023-07-13T00:27:54;101407.06;;;17.27;87.95
71774;BME280;59607;52.130;5.430;2023-07-13T00:30:22;101414.38;;;17.25;87.71
71774;BME280;59607;52.130;5.430;2023-07-13T00:32:49;101408.44;;;17.23;87.68
71774;BME280;59607;52.130;5.430;2023-07-13T00:35:39;101412.09;;;17.22;87.41
71774;BME280;59607;52.130;5.430;2023-07-13T00:38:07;101413.53;;;17.18;87.46
71774;BME280;59607;52.130;5.430;2023-07-13T00:40:39;101412.06;;;17.15;87.37
71774;BME280;59607;52.130;5.430;2023-07-13T00:43:22;101412.06;;;17.15;87.42
71774;BME280;59607;52.130;5.430;2023-07-13T00:48:45;101409.97;;;17.10;87.56
71774;BME280;59607;52.130;5.430;2023-07-13T00:51:44;101410.19;;;17.09;87.63
71774;BME280;59607;52.130;5.430;2023-07-13T00:54:15;101415.63;;;17.07;88.01
71774;BME280;59607;52.130;5.430;2023-07-13T00:57:19;101410.91;;;17.02;88.43
71774;BME280;59607;52.130;5.430;2023-07-13T00:59:56;101404.34;;;16.98;88.64
71774;BME280;59607;52.130;5.430;2023-07-13T01:02:38;101413.50;;;16.96;89.01
71774;BME280;59607;52.130;5.430;2023-07-13T01:05:26;101413.91;;;16.93;89.17
71774;BME280;59607;52.130;5.430;2023-07-13T01:07:53;101414.47;;;16.88;89.89
71774;BME280;59607;52.130;5.430;2023-07-13T01:10:26;101401.59;;;16.85;90.05
71774;BME280;59607;52.130;5.430;2023-07-13T01:12:58;101408.09;;;16.82;90.49
71774;BME280;59607;52.130;5.430;2023-07-13T01:15:46;101410.31;;;16.78;90.49
71774;BME280;59607;52.130;5.430;2023-07-13T01:18:22;101416.34;;;16.72;91.36
71774;BME280;59607;52.130;5.430;2023-07-13T01:21:16;101423.25;;;16.67;91.57
71774;BME280;59607;52.130;5.430;2023-07-13T01:23:45;101426.00;;;16.58;92.69
71774;BME280;59607;52.130;5.430;2023-07-13T01:26:17;101430.84;;;16.55;93.39
71774;BME280;59607;52.130;5.430;2023-07-13T01:28:44;101427.78;;;16.51;93.94
71774;BME280;59607;52.130;5.430;2023-07-13T01:31:11;101422.22;;;16.46;94.21
71774;BME280;59607;52.130;5.430;2023-07-13T01:33:43;101421.59;;;16.44;94.75
71774;BME280;59607;52.130;5.430;2023-07-13T01:36:20;101425.63;;;16.39;94.74
71774;BME280;59607;52.130;5.430;2023-07-13T01:38:49;101423.91;;;16.32;95.36
71774;BME280;59607;52.130;5.430;2023-07-13T01:41:16;101428.56;;;16.30;95.42
71774;BME280;59607;52.130;5.430;2023-07-13T01:43:43;101429.41;;;16.30;96.10
71774;BME280;59607;52.130;5.430;2023-07-13T01:46:15;101425.66;;;16.24;96.09
71774;BME280;59607;52.130;5.430;2023-07-13T01:48:55;101421.94;;;16.19;96.64
71774;BME280;59607;52.130;5.430;2023-07-13T01:51:21;101417.03;;;16.15;97.01
71774;BME280;59607;52.130;5.430;2023-07-13T01:53:48;101423.47;;;16.13;97.15
71774;BME280;59607;52.130;5.430;2023-07-13T01:56:21;101429.97;;;16.10;97.16
71774;BME280;59607;52.130;5.430;2023-07-13T01:58:50;101436.25;;;16.09;97.42
71774;BME280;59607;52.130;5.430;2023-07-13T02:01:23;101425.06;;;16.07;97.48
71774;BME280;59607;52.130;5.430;2023-07-13T02:03:50;101423.97;;;16.01;97.90
71774;BME280;59607;52.130;5.430;2023-07-13T02:06:33;101426.59;;;16.01;97.72
71774;BME280;59607;52.130;5.430;2023-07-13T02:09:05;101428.78;;;15.98;98.20
71774;BME280;59607;52.130;5.430;2023-07-13T02:11:32;101423.84;;;15.95;98.72
71774;BME280;59607;52.130;5.430;2023-07-13T02:14:03;101434.78;;;15.91;99.19
71774;BME280;59607;52.130;5.430;2023-07-13T02:16:30;101436.81;;;15.89;99.46
71774;BME280;59607;52.130;5.430;2023-07-13T02:18:57;101444.94;;;15.88;99.78
71774;BME280;59607;52.130;5.430;2023-07-13T02:21:30;101441.00;;;15.84;99.45
71774;BME280;59607;52.130;5.430;2023-07-13T02:23:56;101435.06;;;15.82;100.00
71774;BME280;59607;52.130;5.430;2023-07-13T02:26:24;101430.78;;;15.81;100.00
71774;BME280;59607;52.130;5.430;2023-07-13T02:28:55;101446.19;;;15.77;100.00
71774;BME280;59607;52.130;5.430;2023-07-13T02:31:22;101440.81;;;15.70;100.00
71774;BME280;59607;52.130;5.430;2023-07-13T02:34:02;101436.53;;;15.69;100.00
71774;BME280;59607;52.130;5.430;2023-07-13T02:36:32;101443.00;;;15.66;100.00
71774;BME280;59607;52.130;5.430;2023-07-13T02:39:03;101441.34;;;15.65;100.00
71774;BME280;59607;52.130;5.430;2023-07-13T02:41:30;101441.53;;;15.64;100.00
71774;BME280;59607;52.130;5.430;2023-07-13T02:44:00;101447.00;;;15.62;100.00
71774;BME280;59607;52.130;5.430;2023-07-13T02:46:35;101449.03;;;15.60;100.00
71774;BME280;59607;52.130;5.430;2023-07-13T02:49:03;101450.19;;;15.58;100.00
71774;BME280;59607;52.130;5.430;2023-07-13T02:51:30;101447.09;;;15.54;100.00
71774;BME280;59607;52.130;5.430;2023-07-13T02:54:04;101444.44;;;15.54;100.00
71774;BME280;59607;52.130;5.430;2023-07-13T02:56:32;101434.88;;;15.53;100.00
71774;BME280;59607;52.130;5.430;2023-07-13T02:59:07;101443.81;;;15.52;100.00
71774;BME280;59607;52.130;5.430;2023-07-13T03:01:34;101448.47;;;15.50;100.00
71774;BME280;59607;52.130;5.430;2023-07-13T03:04:09;101445.34;;;15.46;100.00
71774;BME280;59607;52.130;5.430;2023-07-13T03:58:28;101491.69;;;15.72;100.00
71774;BME280;59607;52.130;5.430;2023-07-13T04:00:57;101496.09;;;15.80;100.00
71774;BME280;59607;52.130;5.430;2023-07-13T04:03:24;101498.38;;;15.83;100.00
71774;BME280;59607;52.130;5.430;2023-07-13T04:05:57;101493.81;;;15.92;100.00
71774;BME280;59607;52.130;5.430;2023-07-13T04:08:28;101494.09;;;15.97;100.00
71774;BME280;59607;52.130;5.430;2023-07-13T04:10:59;101502.88;;;15.98;100.00
71774;BME280;59607;52.130;5.430;2023-07-13T04:13:32;101503.88;;;16.12;100.00
71774;BME280;59607;52.130;5.430;2023-07-13T04:15:59;101497.13;;;16.24;100.00
71774;BME280;59607;52.130;5.430;2023-07-13T04:18:25;101496.75;;;16.27;100.00
71774;BME280;59607;52.130;5.430;2023-07-13T04:20:55;101503.50;;;16.30;100.00
71774;BME280;59607;52.130;5.430;2023-07-13T04:23:32;101498.47;;;16.35;100.00
71774;BME280;59607;52.130;5.430;2023-07-13T04:26:06;101509.88;;;16.51;100.00
71774;BME280;59607;52.130;5.430;2023-07-13T04:28:33;101503.84;;;16.79;100.00
71774;BME280;59607;52.130;5.430;2023-07-13T04:31:02;101515.41;;;16.93;99.61
71774;BME280;59607;52.130;5.430;2023-07-13T04:33:33;101506.69;;;17.43;97.29
71774;BME280;59607;52.130;5.430;2023-07-13T04:36:00;101511.88;;;17.51;94.80
71774;BME280;59607;52.130;5.430;2023-07-13T04:38:32;101512.66;;;17.23;97.03
71774;BME280;59607;52.130;5.430;2023-07-13T04:41:03;101511.81;;;17.23;97.61
71774;BME280;59607;52.130;5.430;2023-07-13T04:43:35;101505.81;;;17.36;97.48
71774;BME280;59607;52.130;5.430;2023-07-13T05:36:17;101525.56;;;18.82;91.73
71774;BME280;59607;52.130;5.430;2023-07-13T05:38:44;101538.44;;;18.78;90.83
71774;BME280;59607;52.130;5.430;2023-07-13T05:41:13;101543.25;;;18.54;92.43
71774;BME280;59607;52.130;5.430;2023-07-13T05:43:39;101542.59;;;18.38;93.83
71774;BME280;59607;52.130;5.430;2023-07-13T05:46:06;101543.56;;;18.24;95.27
71774;BME280;59607;52.130;5.430;2023-07-13T05:48:41;101540.06;;;18.23;95.97
71774;BME280;59607;52.130;5.430;2023-07-13T05:51:08;101551.56;;;18.31;96.25
71774;BME280;59607;52.130;5.430;2023-07-13T05:53:45;101546.47;;;18.43;95.73
71774;BME280;59607;52.130;5.430;2023-07-13T05:56:12;101553.66;;;18.42;96.04
71774;BME280;59607;52.130;5.430;2023-07-13T05:58:41;101544.81;;;18.35;96.40
71774;BME280;59607;52.130;5.430;2023-07-13T06:01:13;101557.34;;;18.48;96.19
71774;BME280;59607;52.130;5.430;2023-07-13T06:03:41;101559.59;;;18.51;95.62
71774;BME280;59607;52.130;5.430;2023-07-13T06:06:12;101568.00;;;18.55;95.63
71774;BME280;59607;52.130;5.430;2023-07-13T06:08:38;101559.50;;;18.80;94.00
71774;BME280;59607;52.130;5.430;2023-07-13T06:11:17;101564.22;;;18.84;94.20
71774;BME280;59607;52.130;5.430;2023-07-13T06:13:44;101570.38;;;18.98;93.28
71774;BME280;59607;52.130;5.430;2023-07-13T06:16:16;101575.69;;;18.98;93.22
71774;BME280;59607;52.130;5.430;2023-07-13T06:18:43;101579.78;;;18.94;93.68
71774;BME280;59607;52.130;5.430;2023-07-13T06:21:20;101569.97;;;18.95;93.40
71774;BME280;59607;52.130;5.430;2023-07-13T06:23:50;101582.72;;;19.13;93.04
71774;BME280;59607;52.130;5.430;2023-07-13T06:26:23;101581.94;;;19.33;91.39
71774;BME280;59607;52.130;5.430;2023-07-13T06:28:53;101588.25;;;19.18;91.24
71774;BME280;59607;52.130;5.430;2023-07-13T06:31:25;101585.81;;;19.23;92.58
71774;BME280;59607;52.130;5.430;2023-07-13T06:33:52;101592.16;;;19.36;90.96
71774;BME280;59607;52.130;5.430;2023-07-13T06:36:18;101592.75;;;19.45;90.84
71774;BME280;59607;52.130;5.430;2023-07-13T06:38:47;101590.31;;;19.70;88.85
71774;BME280;59607;52.130;5.430;2023-07-13T06:41:14;101593.38;;;19.54;90.21
71774;BME280;59607;52.130;5.430;2023-07-13T06:43:41;101593.78;;;19.44;89.94
71774;BME280;59607;52.130;5.430;2023-07-13T06:46:13;101594.19;;;19.41;90.97
71774;BME280;59607;52.130;5.430;2023-07-13T06:48:41;101594.19;;;19.41;90.86
71774;BME280;59607;52.130;5.430;2023-07-13T06:51:14;101588.28;;;19.45;90.78
71774;BME280;59607;52.130;5.430;2023-07-13T06:53:41;101589.50;;;19.50;90.96
71774;BME280;59607;52.130;5.430;2023-07-13T06:56:10;101594.22;;;19.54;90.53
71774;BME280;59607;52.130;5.430;2023-07-13T06:58:37;101590.94;;;19.66;89.89
71774;BME280;59607;52.130;5.430;2023-07-13T07:01:04;101600.94;;;19.97;88.33
71774;BME280;59607;52.130;5.430;2023-07-13T07:03:34;101598.84;;;20.33;85.59
71774;BME280;59607;52.130;5.430;2023-07-13T07:06:10;101595.00;;;21.14;81.01
71774;BME280;59607;52.130;5.430;2023-07-13T07:08:38;101598.59;;;21.27;78.19
71774;BME280;59607;52.130;5.430;2023-07-13T07:11:07;101604.34;;;20.84;80.20
71774;BME280;59607;52.130;5.430;2023-07-13T07:13:35;101616.72;;;20.72;81.92
71774;BME280;59607;52.130;5.430;2023-07-13T07:16:09;101609.66;;;20.91;80.51
71774;BME280;59607;52.130;5.430;2023-07-13T07:18:36;101610.59;;;21.11;80.17
71774;BME280;59607;52.130;5.430;2023-07-13T07:21:04;101618.97;;;21.21;79.37
71774;BME280;59607;52.130;5.430;2023-07-13T07:23:31;101606.63;;;21.20;78.46
71774;BME280;59607;52.130;5.430;2023-07-13T07:25:58;101624.56;;;21.13;79.42
71774;BME280;59607;52.130;5.430;2023-07-13T07:28:25;101619.72;;;20.96;81.27
71774;BME280;59607;52.130;5.430;2023-07-13T07:31:11;101629.63;;;20.75;84.39
71774;BME280;59607;52.130;5.430;2023-07-13T07:33:43;101635.84;;;20.62;88.32
71774;BME280;59607;52.130;5.430;2023-07-13T07:36:12;101626.44;;;20.53;89.00
71774;BME280;59607;52.130;5.430;2023-07-13T07:38:59;101626.66;;;20.44;91.35
71774;BME280;59607;52.130;5.430;2023-07-13T07:41:25;101628.34;;;20.39;94.90
71774;BME280;59607;52.130;5.430;2023-07-13T07:43:55;101629.56;;;20.36;94.38
71774;BME280;59607;52.130;5.430;2023-07-13T07:46:24;101625.28;;;20.35;94.99
71774;BME280;59607;52.130;5.430;2023-07-13T07:48:51;101619.31;;;20.33;94.48
71774;BME280;59607;52.130;5.430;2023-07-13T07:51:21;101607.47;;;20.29;96.13
71774;BME280;59607;52.130;5.430;2023-07-13T07:53:51;101613.34;;;20.44;95.63
71774;BME280;59607;52.130;5.430;2023-07-13T07:56:18;101609.44;;;20.47;94.82
71774;BME280;59607;52.130;5.430;2023-07-13T07:58:51;101606.19;;;20.45;94.99
71774;BME280;59607;52.130;5.430;2023-07-13T08:01:23;101597.16;;;20.39;95.25
71774;BME280;59607;52.130;5.430;2023-07-13T08:04:13;101605.34;;;20.51;93.47
71774;BME280;59607;52.130;5.430;2023-07-13T08:06:59;101608.84;;;20.91;90.51
71774;BME280;59607;52.130;5.430;2023-07-13T08:09:29;101608.00;;;21.36;87.47
71774;BME280;59607;52.130;5.430;2023-07-13T08:11:56;101609.28;;;21.85;85.93
71774;BME280;59607;52.130;5.430;2023-07-13T08:14:26;101614.84;;;22.39;80.96
71774;BME280;59607;52.130;5.430;2023-07-13T08:17:08;101618.34;;;22.40;78.91
71774;BME280;59607;52.130;5.430;2023-07-13T08:19:41;101614.34;;;22.12;77.94
71774;BME280;59607;52.130;5.430;2023-07-13T08:22:08;101606.91;;;21.69;79.70
71774;BME280;59607;52.130;5.430;2023-07-13T08:24:38;101605.16;;;21.56;78.39
71774;BME280;59607;52.130;5.430;2023-07-13T08:27:05;101613.13;;;21.38;80.68
71774;BME280;59607;52.130;5.430;2023-07-13T08:29:31;101619.22;;;21.13;81.21
71774;BME280;59607;52.130;5.430;2023-07-13T08:32:01;101613.44;;;21.16;83.63
71774;BME280;59607;52.130;5.430;2023-07-13T08:34:28;101618.59;;;21.43;80.82
71774;BME280;59607;52.130;5.430;2023-07-13T08:36:54;101613.72;;;21.91;77.55
71774;BME280;59607;52.130;5.430;2023-07-13T08:39:22;101600.00;;;22.25;74.49
71774;BME280;59607;52.130;5.430;2023-07-13T08:41:57;101595.09;;;22.59;73.22
71774;BME280;59607;52.130;5.430;2023-07-13T08:45:17;101599.84;;;22.57;70.74
71774;BME280;59607;52.130;5.430;2023-07-13T08:47:56;101598.44;;;22.54;69.10
71774;BME280;59607;52.130;5.430;2023-07-13T08:50:51;101607.59;;;22.65;67.50
71774;BME280;59607;52.130;5.430;2023-07-13T08:54:03;101624.31;;;22.91;64.55
71774;BME280;59607;52.130;5.430;2023-07-13T08:56:31;101635.72;;;22.68;63.43
71774;BME280;59607;52.130;5.430;2023-07-13T08:59:09;101635.03;;;22.35;63.04
71774;BME280;59607;52.130;5.430;2023-07-13T09:05:09;101636.63;;;21.80;66.33
71774;BME280;59607;52.130;5.430;2023-07-13T09:08:22;101647.22;;;21.61;68.90
71774;BME280;59607;52.130;5.430;2023-07-13T09:10:54;101646.28;;;21.49;68.41
71774;BME280;59607;52.130;5.430;2023-07-13T09:13:56;101638.53;;;21.40;69.55
71774;BME280;59607;52.130;5.430;2023-07-13T09:16:39;101639.81;;;21.38;72.88
71774;BME280;59607;52.130;5.430;2023-07-13T09:19:14;101640.69;;;21.57;74.00
71774;BME280;59607;52.130;5.430;2023-07-13T09:21:45;101632.78;;;21.69;75.51
71774;BME280;59607;52.130;5.430;2023-07-13T09:24:35;101639.31;;;21.80;75.60
71774;BME280;59607;52.130;5.430;2023-07-13T09:27:13;101630.47;;;21.79;77.23
71774;BME280;59607;52.130;5.430;2023-07-13T09:32:47;101627.97;;;21.85;76.05
71774;BME280;59607;52.130;5.430;2023-07-13T09:35:21;101641.28;;;22.29;76.51
71774;BME280;59607;52.130;5.430;2023-07-13T09:37:49;101645.06;;;22.77;70.71
71774;BME280;59607;52.130;5.430;2023-07-13T09:40:41;101633.41;;;22.72;70.84
71774;BME280;59607;52.130;5.430;2023-07-13T09:43:14;101626.44;;;22.71;66.28
71774;BME280;59607;52.130;5.430;2023-07-13T09:45:47;101631.41;;;22.67;66.81
71774;BME280;59607;52.130;5.430;2023-07-13T09:48:16;101636.53;;;22.31;66.45
71774;BME280;59607;52.130;5.430;2023-07-13T09:51:14;101641.44;;;21.90;67.83
71774;BME280;59607;52.130;5.430;2023-07-13T09:53:44;101663.19;;;21.36;70.98
71774;BME280;59607;52.130;5.430;2023-07-13T09:56:27;101677.09;;;21.05;78.07
71774;BME280;59607;52.130;5.430;2023-07-13T09:58:58;101705.75;;;20.71;82.98
71774;BME280;59607;52.130;5.430;2023-07-13T10:01:36;101691.91;;;20.08;86.25
71774;BME280;59607;52.130;5.430;2023-07-13T10:04:11;101687.38;;;19.88;87.25
71774;BME280;59607;52.130;5.430;2023-07-13T10:06:42;101686.53;;;19.88;87.96
71774;BME280;59607;52.130;5.430;2023-07-13T10:09:18;101693.53;;;20.09;87.46
71774;BME280;59607;52.130;5.430;2023-07-13T10:11:45;101689.56;;;20.66;84.78
71774;BME280;59607;52.130;5.430;2023-07-13T10:14:20;101687.06;;;21.24;84.87
71774;BME280;59607;52.130;5.430;2023-07-13T10:16:58;101678.53;;;21.79;82.94
71774;BME280;59607;52.130;5.430;2023-07-13T10:19:32;101677.50;;;21.74;84.10
71774;BME280;59607;52.130;5.430;2023-07-13T10:22:29;101683.97;;;21.91;80.93
71774;BME280;59607;52.130;5.430;2023-07-13T10:25:01;101690.28;;;21.72;81.58
71774;BME280;59607;52.130;5.430;2023-07-13T10:27:35;101680.81;;;21.69;83.05
71774;BME280;59607;52.130;5.430;2023-07-13T10:30:52;101680.53;;;21.84;83.49
71774;BME280;59607;52.130;5.430;2023-07-13T10:33:04;101677.81;;;22.54;83.64
71774;BME280;59607;52.130;5.430;2023-07-13T10:35:39;101675.59;;;22.70;78.49
71774;BME280;59607;52.130;5.430;2023-07-13T10:38:19;101683.31;;;22.78;78.55
71774;BME280;59607;52.130;5.430;2023-07-13T10:41:07;101688.47;;;22.61;79.24
71774;BME280;59607;52.130;5.430;2023-07-13T10:43:43;101687.69;;;22.53;77.53
71774;BME280;59607;52.130;5.430;2023-07-13T10:46:17;101691.69;;;22.44;78.60
71774;BME280;59607;52.130;5.430;2023-07-13T10:48:47;101690.66;;;22.45;78.97
71774;BME280;59607;52.130;5.430;2023-07-13T10:51:21;101690.88;;;22.43;78.34
71774;BME280;59607;52.130;5.430;2023-07-13T10:54:18;101689.66;;;22.65;80.79
71774;BME280;59607;52.130;5.430;2023-07-13T10:56:52;101694.97;;;23.02;76.48
71774;BME280;59607;52.130;5.430;2023-07-13T10:59:25;101688.22;;;23.00;73.21
71774;BME280;59607;52.130;5.430;2023-07-13T11:04:48;101690.38;;;23.52;70.76
71774;BME280;59607;52.130;5.430;2023-07-13T11:07:30;101697.50;;;23.71;70.72
71774;BME280;59607;52.130;5.430;2023-07-13T11:10:00;101700.75;;;23.61;63.35
71774;BME280;59607;52.130;5.430;2023-07-13T11:12:52;101709.66;;;23.85;65.17
71774;BME280;59607;52.130;5.430;2023-07-13T11:15:48;101708.28;;;24.19;63.44
71774;BME280;59607;52.130;5.430;2023-07-13T11:18:24;101709.06;;;24.67;58.25
71774;BME280;59607;52.130;5.430;2023-07-13T11:21:20;101706.97;;;24.57;60.23
71774;BME280;59607;52.130;5.430;2023-07-13T11:26:44;101707.47;;;24.30;60.14
71774;BME280;59607;52.130;5.430;2023-07-13T11:29:38;101698.94;;;24.33;61.54
71774;BME280;59607;52.130;5.430;2023-07-13T11:32:23;101693.72;;;24.26;59.95
71774;BME280;59607;52.130;5.430;2023-07-13T11:34:50;101693.81;;;24.08;58.79
71774;BME280;59607;52.130;5.430;2023-07-13T11:37:23;101695.66;;;23.83;59.54
71774;BME280;59607;52.130;5.430;2023-07-13T11:39:51;101706.75;;;23.44;60.93
71774;BME280;59607;52.130;5.430;2023-07-13T11:42:20;101705.44;;;23.04;64.98
71774;BME280;59607;52.130;5.430;2023-07-13T11:44:49;101722.09;;;22.87;70.70
71774;BME280;59607;52.130;5.430;2023-07-13T11:47:33;101741.72;;;23.00;74.00
71774;BME280;59607;52.130;5.430;2023-07-13T11:50:04;101735.97;;;22.77;71.03
71774;BME280;59607;52.130;5.430;2023-07-13T11:52:46;101733.63;;;22.69;69.95
71774;BME280;59607;52.130;5.430;2023-07-13T11:55:15;101735.69;;;22.67;72.59
71774;BME280;59607;52.130;5.430;2023-07-13T11:57:59;101739.28;;;22.61;70.49
71774;BME280;59607;52.130;5.430;2023-07-13T12:00:32;101731.81;;;22.63;70.02
71774;BME280;59607;52.130;5.430;2023-07-13T12:03:05;101730.91;;;22.50;69.04
71774;BME280;59607;52.130;5.430;2023-07-13T12:05:37;101733.50;;;22.38;71.73
71774;BME280;59607;52.130;5.430;2023-07-13T12:08:15;101731.34;;;22.28;73.61
71774;BME280;59607;52.130;5.430;2023-07-13T12:10:58;101736.50;;;22.23;75.46
71774;BME280;59607;52.130;5.430;2023-07-13T12:13:27;101737.75;;;22.46;74.66
71774;BME280;59607;52.130;5.430;2023-07-13T12:15:56;101735.59;;;22.55;75.57
71774;BME280;59607;52.130;5.430;2023-07-13T12:18:30;101723.66;;;22.58;75.58
71774;BME280;59607;52.130;5.430;2023-07-13T12:20:59;101731.44;;;22.59;76.84
71774;BME280;59607;52.130;5.430;2023-07-13T12:23:33;101737.16;;;22.63;76.66
71774;BME280;59607;52.130;5.430;2023-07-13T12:26:05;101736.78;;;22.59;77.33
71774;BME280;59607;52.130;5.430;2023-07-13T12:28:46;101740.91;;;22.62;76.05
71774;BME280;59607;52.130;5.430;2023-07-13T12:34:09;101738.81;;;22.64;74.78
71774;BME280;59607;52.130;5.430;2023-07-13T12:36:50;101737.19;;;22.82;72.76
71774;BME280;59607;52.130;5.430;2023-07-13T12:39:37;101729.06;;;23.38;71.57
71774;BME280;59607;52.130;5.430;2023-07-13T12:42:22;101722.59;;;24.00;71.60
71774;BME280;59607;52.130;5.430;2023-07-13T12:45:03;101726.09;;;24.37;67.96
71774;BME280;59607;52.130;5.430;2023-07-13T12:47:43;101721.78;;;24.48;67.95
71774;BME280;59607;52.130;5.430;2023-07-13T12:50:17;101721.34;;;24.39;66.38
71774;BME280;59607;52.130;5.430;2023-07-13T12:53:03;101720.34;;;23.73;65.62
71774;BME280;59607;52.130;5.430;2023-07-13T12:55:30;101726.59;;;23.24;65.10
71774;BME280;59607;52.130;5.430;2023-07-13T12:58:25;101730.75;;;23.51;64.59
71774;BME280;59607;52.130;5.430;2023-07-13T13:00:55;101721.31;;;24.15;63.55
71774;BME280;59607;52.130;5.430;2023-07-13T13:03:34;101727.28;;;24.41;59.68
71774;BME280;59607;52.130;5.430;2023-07-13T13:08:57;101730.72;;;24.06;61.46
71774;BME280;59607;52.130;5.430;2023-07-13T13:11:29;101731.50;;;23.70;61.93
71774;BME280;59607;52.130;5.430;2023-07-13T13:14:01;101733.44;;;23.51;63.91
71774;BME280;59607;52.130;5.430;2023-07-13T13:16:50;101728.13;;;23.75;62.06
71774;BME280;59607;52.130;5.430;2023-07-13T13:19:28;101724.72;;;24.22;61.16
71774;BME280;59607;52.130;5.430;2023-07-13T13:21:57;101726.94;;;24.37;58.50
71774;BME280;59607;52.130;5.430;2023-07-13T13:24:27;101729.00;;;24.11;59.86
71774;BME280;59607;52.130;5.430;2023-07-13T13:27:03;101724.13;;;24.08;59.29
71774;BME280;59607;52.130;5.430;2023-07-13T13:29:31;101733.88;;;24.02;58.38
71774;BME280;59607;52.130;5.430;2023-07-13T13:32:09;101731.22;;;23.90;59.39
71774;BME280;59607;52.130;5.430;2023-07-13T13:34:36;101730.38;;;23.90;59.24
71774;BME280;59607;52.130;5.430;2023-07-13T13:37:19;101730.03;;;23.74;58.31
71774;BME280;59607;52.130;5.430;2023-07-13T13:39:47;101736.97;;;23.63;58.91
71774;BME280;59607;52.130;5.430;2023-07-13T13:42:33;101735.66;;;23.23;59.06
71774;BME280;59607;52.130;5.430;2023-07-13T13:45:05;101736.41;;;23.12;59.98
71774;BME280;59607;52.130;5.430;2023-07-13T13:47:32;101735.59;;;23.11;60.73
71774;BME280;59607;52.130;5.430;2023-07-13T13:50:01;101739.47;;;23.46;60.24
71774;BME280;59607;52.130;5.430;2023-07-13T13:52:33;101736.91;;;23.39;57.48
71774;BME280;59607;52.130;5.430;2023-07-13T13:55:00;101735.94;;;23.34;58.31
71774;BME280;59607;52.130;5.430;2023-07-13T13:57:27;101734.84;;;23.23;56.26
71774;BME280;59607;52.130;5.430;2023-07-13T13:59:57;101730.28;;;23.23;57.89
71774;BME280;59607;52.130;5.430;2023-07-13T14:02:27;101727.91;;;23.15;57.67
71774;BME280;59607;52.130;5.430;2023-07-13T14:05:12;101736.94;;;23.51;56.40
71774;BME280;59607;52.130;5.430;2023-07-13T14:07:42;101743.00;;;23.59;56.84
71774;BME280;59607;52.130;5.430;2023-07-13T14:10:14;101730.31;;;23.54;56.38
71774;BME280;59607;52.130;5.430;2023-07-13T14:12:46;101734.50;;;23.50;55.89
71774;BME280;59607;52.130;5.430;2023-07-13T14:15:21;101734.63;;;23.55;56.75
71774;BME280;59607;52.130;5.430;2023-07-13T14:17:50;101737.31;;;23.55;56.03
71774;BME280;59607;52.130;5.430;2023-07-13T14:20:25;101746.00;;;23.50;56.01
71774;BME280;59607;52.130;5.430;2023-07-13T14:22:56;101734.88;;;23.35;57.82
71774;BME280;59607;52.130;5.430;2023-07-13T14:25:33;101749.69;;;23.37;57.04
71774;BME280;59607;52.130;5.430;2023-07-13T14:31:02;101735.69;;;23.35;57.28
71774;BME280;59607;52.130;5.430;2023-07-13T14:33:30;101741.16;;;23.59;56.00
71774;BME280;59607;52.130;5.430;2023-07-13T14:35:56;101728.50;;;23.78;54.61
71774;BME280;59607;52.130;5.430;2023-07-13T14:38:23;101746.50;;;23.59;55.50
71774;BME280;59607;52.130;5.430;2023-07-13T14:40:53;101751.81;;;23.47;55.75
71774;BME280;59607;52.130;5.430;2023-07-13T14:43:20;101749.97;;;23.48;56.28
71774;BME280;59607;52.130;5.430;2023-07-13T14:45:49;101752.19;;;23.51;55.52
71774;BME280;59607;52.130;5.430;2023-07-13T14:48:24;101743.97;;;23.64;55.07
71774;BME280;59607;52.130;5.430;2023-07-13T14:50:56;101736.63;;;23.72;55.62
71774;BME280;59607;52.130;5.430;2023-07-13T14:53:45;101752.69;;;23.72;56.30
71774;BME280;59607;52.130;5.430;2023-07-13T14:56:12;101757.44;;;23.58;56.18
71774;BME280;59607;52.130;5.430;2023-07-13T14:58:42;101758.03;;;23.60;55.44
71774;BME280;59607;52.130;5.430;2023-07-13T15:01:13;101754.78;;;23.58;56.54
71774;BME280;59607;52.130;5.430;2023-07-13T15:03:48;101754.63;;;23.52;56.51
71774;BME280;59607;52.130;5.430;2023-07-13T15:06:17;101746.13;;;23.56;57.14
71774;BME280;59607;52.130;5.430;2023-07-13T15:08:45;101747.03;;;24.04;55.90
71774;BME280;59607;52.130;5.430;2023-07-13T15:11:16;101742.19;;;24.37;55.64
71774;BME280;59607;52.130;5.430;2023-07-13T15:13:43;101747.53;;;24.61;54.83
71774;BME280;59607;52.130;5.430;2023-07-13T15:16:22;101754.22;;;24.34;54.63
71774;BME280;59607;52.130;5.430;2023-07-13T15:18:50;101757.75;;;24.04;55.24
71774;BME280;59607;52.130;5.430;2023-07-13T15:21:40;101763.81;;;23.87;56.23
71774;BME280;59607;52.130;5.430;2023-07-13T15:24:08;101764.97;;;23.91;56.39
71774;BME280;59607;52.130;5.430;2023-07-13T15:26:39;101761.94;;;23.88;56.07
71774;BME280;59607;52.130;5.430;2023-07-13T15:29:07;101754.16;;;23.98;55.61